Time;durP1;ratioP1;P1;durP2;ratioP2;P2;SDS_P1;SDS_P2;PMS_P1;PMS_P2;Temp;Humidity;BMP_temperature;BMP_pressure;BME280_temperature;BME280_humidity;BME280_pressure;Samples;Min_cycle;Max_cycle;Signal;HPM_P1;HPM_P2
2022/08/26 00:02:10;;;;;;;;;;;28.60;55.80;;;;;;5108284;28;19912;-61
2022/08/26 00:04:35;;;;;;;;;;;28.50;56.00;;;;;;5088909;28;19912;-61
2022/08/26 00:07:01;;;;;;;;;;;28.50;56.10;;;;;;5110336;28;19922;-62
2022/08/26 00:09:26;;;;;;;;;;;28.50;56.20;;;;;;5084030;28;20006;-62
2022/08/26 00:11:52;;;;;;;;;;;28.50;55.70;;;;;;5114631;28;20413;-61
2022/08/26 00:14:18;;;;;;;;;;;28.50;56.20;;;;;;5103252;28;20299;-61
2022/08/26 00:16:43;;;;;;;;;;;28.40;56.10;;;;;;5073952;28;19922;-61
2022/08/26 00:19:09;;;;;;;;;;;28.50;55.90;;;;;;5073239;28;19912;-61
2022/08/26 00:21:34;;;;;;;;;;;28.50;55.80;;;;;;5094256;28;19916;-61
2022/08/26 00:24:00;;;;;;;;;;;28.50;55.90;;;;;;5090964;28;19916;-62
2022/08/26 00:26:25;;;;;;;;;;;28.50;56.10;;;;;;5052566;28;20054;-61
2022/08/26 00:28:51;;;;;;;;;;;28.50;55.60;;;;;;5058820;28;19956;-61
2022/08/26 00:31:16;;;;;;;;;;;28.50;55.80;;;;;;5089838;28;19934;-61
2022/08/26 00:33:42;;;;;;;;;;;28.50;56.30;;;;;;5093888;28;19961;-61
2022/08/26 00:36:08;;;;;;;;;;;28.50;56.60;;;;;;5091157;28;19953;-62
2022/08/26 00:38:36;;;;;;;;;;;28.50;56.20;;;;;;5093573;28;19964;-61
2022/08/26 00:41:02;;;;;;;;;;;28.50;56.10;;;;;;5092013;28;19912;-61
2022/08/26 00:43:28;;;;;;;;;;;28.60;56.40;;;;;;5073254;28;19985;-61
2022/08/26 00:45:59;;;;;;;;;;;28.50;56.30;;;;;;5089223;28;19928;-61
2022/08/26 00:48:25;;;;;;;;;;;28.50;56.60;;;;;;5074483;28;19920;-61
2022/08/26 00:51:00;;;;;;;;;;;28.50;56.50;;;;;;5073454;28;19912;-61
2022/08/26 00:53:26;;;;;;;;;;;28.50;56.70;;;;;;5073941;28;20418;-61
2022/08/26 00:56:06;;;;;;;;;;;28.40;56.10;;;;;;5091888;28;19908;-61
2022/08/26 00:58:32;;;;;;;;;;;28.50;56.80;;;;;;5081589;28;19912;-61
2022/08/26 01:00:58;;;;;;;;;;;28.50;56.70;;;;;;5070248;28;20281;-61
2022/08/26 01:03:24;;;;;;;;;;;28.50;56.80;;;;;;5087614;28;19927;-61
2022/08/26 01:05:54;;;;;;;;;;;28.50;56.80;;;;;;5068357;28;20367;-61
2022/08/26 01:08:20;;;;;;;;;;;28.50;56.40;;;;;;5075062;28;19913;-61
2022/08/26 01:10:45;;;;;;;;;;;28.50;57.10;;;;;;5090525;28;19919;-61
2022/08/26 01:13:10;;;;;;;;;;;28.50;56.90;;;;;;5091707;28;20329;-61
2022/08/26 01:15:39;;;;;;;;;;;28.50;56.60;;;;;;5075371;28;20290;-61
2022/08/26 01:18:04;;;;;;;;;;;28.50;56.20;;;;;;5095100;28;20444;-61
2022/08/26 01:20:42;;;;;;;;;;;28.50;56.70;;;;;;5094070;28;19912;-61
2022/08/26 01:23:08;;;;;;;;;;;28.50;57.40;;;;;;5106794;28;20293;-61
2022/08/26 01:25:35;;;;;;;;;;;28.40;56.90;;;;;;5092641;28;20375;-61
2022/08/26 01:28:02;;;;;;;;;;;28.50;56.60;;;;;;5113979;28;19918;-61
2022/08/26 01:30:27;;;;;;;;;;;28.40;56.60;;;;;;5093335;28;20406;-61
2022/08/26 01:32:53;;;;;;;;;;;28.40;56.80;;;;;;5095146;28;19912;-61
2022/08/26 01:35:19;;;;;;;;;;;28.40;57.00;;;;;;5111291;28;19912;-61
2022/08/26 01:37:44;;;;;;;;;;;28.40;56.80;;;;;;5093485;28;19916;-61
2022/08/26 01:40:12;;;;;;;;;;;28.50;57.10;;;;;;5088954;28;19920;-61
2022/08/26 01:42:39;;;;;;;;;;;28.40;57.20;;;;;;5094653;28;19912;-61
2022/08/26 01:45:06;;;;;;;;;;;28.40;56.70;;;;;;5093487;28;19912;-61
2022/08/26 01:47:32;;;;;;;;;;;28.40;57.10;;;;;;5093491;28;19935;-61
2022/08/26 01:49:58;;;;;;;;;;;28.40;56.80;;;;;;5092179;28;19958;-61
2022/08/26 01:52:24;;;;;;;;;;;28.40;57.10;;;;;;5095370;28;19916;-61
2022/08/26 01:54:50;;;;;;;;;;;28.40;57.20;;;;;;5089639;28;19916;-61
2022/08/26 01:57:16;;;;;;;;;;;28.40;57.30;;;;;;5088436;28;19912;-61
2022/08/26 01:59:41;;;;;;;;;;;28.30;57.50;;;;;;5091445;28;20007;-61
2022/08/26 02:02:07;;;;;;;;;;;28.30;57.80;;;;;;5107161;28;19915;-61
2022/08/26 02:04:33;;;;;;;;;;;28.30;58.20;;;;;;5109355;28;19916;-61
2022/08/26 02:07:00;;;;;;;;;;;28.30;57.50;;;;;;5111323;28;19912;-61
2022/08/26 02:09:25;;;;;;;;;;;28.30;57.50;;;;;;5092987;28;19919;-61
2022/08/26 02:11:51;;;;;;;;;;;28.30;57.40;;;;;;5112662;28;19908;-61
2022/08/26 02:14:21;;;;;;;;;;;28.30;57.20;;;;;;5106566;28;20379;-61
2022/08/26 02:16:47;;;;;;;;;;;28.30;57.10;;;;;;5076123;28;20295;-61
2022/08/26 02:19:22;;;;;;;;;;;28.30;57.20;;;;;;5074790;28;19912;-61
2022/08/26 02:21:48;;;;;;;;;;;28.30;57.50;;;;;;5091911;28;19916;-61
2022/08/26 02:24:23;;;;;;;;;;;28.40;57.60;;;;;;5111868;28;19923;-61
2022/08/26 02:26:49;;;;;;;;;;;28.30;57.40;;;;;;5076923;28;20337;-61
2022/08/26 02:29:22;;;;;;;;;;;28.30;57.50;;;;;;5087975;28;19919;-61
2022/08/26 02:31:48;;;;;;;;;;;28.30;57.70;;;;;;5085569;28;19936;-61
2022/08/26 02:34:15;;;;;;;;;;;28.30;57.50;;;;;;5110164;28;19916;-61
2022/08/26 02:36:40;;;;;;;;;;;28.30;58.00;;;;;;5110880;28;19915;-61
2022/08/26 02:39:06;;;;;;;;;;;28.30;57.70;;;;;;5086276;28;19938;-61
2022/08/26 02:41:32;;;;;;;;;;;28.20;57.60;;;;;;5092913;28;19918;-61
2022/08/26 02:43:57;;;;;;;;;;;28.20;57.80;;;;;;5110020;28;19912;-62
2022/08/26 02:46:22;;;;;;;;;;;28.20;58.00;;;;;;5091208;28;19957;-61
2022/08/26 02:48:48;;;;;;;;;;;28.30;57.70;;;;;;5105755;28;19920;-61
2022/08/26 02:51:13;;;;;;;;;;;28.30;57.70;;;;;;5111550;28;19912;-61
2022/08/26 02:53:39;;;;;;;;;;;28.20;58.00;;;;;;5110600;28;19931;-61
2022/08/26 02:56:06;;;;;;;;;;;28.20;57.90;;;;;;5105384;28;19920;-62
2022/08/26 02:58:32;;;;;;;;;;;28.20;57.90;;;;;;5088734;28;19947;-61
2022/08/26 03:00:57;;;;;;;;;;;28.30;57.70;;;;;;5073293;28;19966;-61
2022/08/26 03:03:24;;;;;;;;;;;28.20;58.00;;;;;;5112073;28;20403;-61
2022/08/26 03:05:49;;;;;;;;;;;28.20;57.60;;;;;;5086314;28;19918;-61
2022/08/26 03:08:15;;;;;;;;;;;28.20;58.00;;;;;;5110805;28;20058;-61
2022/08/26 03:10:40;;;;;;;;;;;28.20;57.80;;;;;;5109155;28;19949;-61
2022/08/26 03:13:06;;;;;;;;;;;28.20;58.00;;;;;;5107244;28;19966;-61
2022/08/26 03:15:32;;;;;;;;;;;28.10;58.20;;;;;;5107984;28;19928;-61
2022/08/26 03:17:57;;;;;;;;;;;28.10;58.30;;;;;;5094231;28;19972;-61
2022/08/26 03:20:23;;;;;;;;;;;28.00;58.50;;;;;;5087506;28;20616;-61
2022/08/26 03:22:51;;;;;;;;;;;28.00;57.90;;;;;;5110126;28;20283;-61
2022/08/26 03:25:17;;;;;;;;;;;28.10;58.00;;;;;;5090059;28;19911;-61
2022/08/26 03:27:43;;;;;;;;;;;28.20;58.40;;;;;;5074977;28;20025;-61
2022/08/26 03:32:52;;;;;;;;;;;28.10;58.40;;;;;;5111186;28;19919;-61
2022/08/26 03:35:18;;;;;;;;;;;28.10;58.20;;;;;;5109315;28;19916;-61
2022/08/26 03:37:43;;;;;;;;;;;28.10;58.40;;;;;;5105546;28;19920;-61
2022/08/26 03:40:10;;;;;;;;;;;28.10;58.40;;;;;;5107998;28;20339;-61
2022/08/26 03:42:36;;;;;;;;;;;28.10;58.50;;;;;;5092754;28;19959;-61
2022/08/26 03:45:03;;;;;;;;;;;28.00;58.30;;;;;;5111198;28;19920;-61
2022/08/26 03:47:29;;;;;;;;;;;28.10;58.50;;;;;;5079751;28;19949;-61
2022/08/26 03:49:55;;;;;;;;;;;28.10;58.40;;;;;;5114890;28;20293;-61
2022/08/26 03:52:21;;;;;;;;;;;28.00;58.20;;;;;;5115055;28;20002;-61
2022/08/26 03:54:46;;;;;;;;;;;28.00;58.40;;;;;;5089281;28;20555;-61
2022/08/26 03:57:12;;;;;;;;;;;28.10;58.20;;;;;;5093248;28;20283;-61
2022/08/26 03:59:37;;;;;;;;;;;28.10;58.40;;;;;;5114967;28;19935;-61
2022/08/26 04:02:03;;;;;;;;;;;28.00;58.30;;;;;;5075483;28;19916;-62
2022/08/26 04:04:28;;;;;;;;;;;28.00;58.40;;;;;;5112805;28;20334;-62
2022/08/26 04:06:57;;;;;;;;;;;28.00;58.40;;;;;;5113613;28;19926;-61
2022/08/26 04:09:22;;;;;;;;;;;28.00;58.30;;;;;;5114318;28;20367;-61
2022/08/26 04:11:48;;;;;;;;;;;28.00;58.50;;;;;;5089207;28;19923;-61
2022/08/26 04:14:14;;;;;;;;;;;28.10;58.50;;;;;;5099559;28;20414;-61
2022/08/26 04:16:40;;;;;;;;;;;28.10;58.40;;;;;;5109441;28;19922;-61
2022/08/26 04:19:06;;;;;;;;;;;28.10;58.50;;;;;;5094625;28;20374;-61
2022/08/26 04:21:32;;;;;;;;;;;28.10;58.30;;;;;;5110921;28;19911;-61
2022/08/26 04:23:59;;;;;;;;;;;28.00;58.40;;;;;;5113246;28;21309;-61
2022/08/26 04:26:24;;;;;;;;;;;28.10;58.40;;;;;;5112281;28;19922;-61
2022/08/26 04:28:50;;;;;;;;;;;28.10;58.40;;;;;;5085883;28;19935;-61
2022/08/26 04:31:16;;;;;;;;;;;28.00;58.50;;;;;;5088831;28;19974;-61
2022/08/26 04:33:42;;;;;;;;;;;28.00;58.70;;;;;;5096429;28;19936;-61
2022/08/26 04:36:07;;;;;;;;;;;28.00;58.60;;;;;;5094017;28;19912;-61
2022/08/26 04:38:33;;;;;;;;;;;28.00;58.80;;;;;;5112094;28;20617;-61
2022/08/26 04:40:58;;;;;;;;;;;27.90;58.70;;;;;;5094627;28;19995;-61
2022/08/26 04:43:27;;;;;;;;;;;27.90;58.80;;;;;;5074277;28;19964;-61
2022/08/26 04:45:52;;;;;;;;;;;27.90;58.70;;;;;;5111978;27;20280;-61
2022/08/26 04:48:18;;;;;;;;;;;27.90;58.70;;;;;;5111101;28;19908;-61
2022/08/26 04:50:43;;;;;;;;;;;27.90;58.90;;;;;;5112330;28;20041;-61
2022/08/26 04:53:08;;;;;;;;;;;27.90;58.80;;;;;;5114296;28;19914;-61
2022/08/26 04:55:34;;;;;;;;;;;28.00;58.90;;;;;;5078214;28;20415;-61
2022/08/26 04:57:59;;;;;;;;;;;28.00;58.60;;;;;;5107575;28;20375;-61
2022/08/26 05:00:25;;;;;;;;;;;28.00;58.70;;;;;;5077146;28;20389;-61
2022/08/26 05:02:50;;;;;;;;;;;28.00;58.60;;;;;;5095078;28;19970;-61
2022/08/26 05:05:16;;;;;;;;;;;27.90;58.80;;;;;;5095684;28;19999;-61
2022/08/26 05:07:42;;;;;;;;;;;27.90;58.80;;;;;;5113502;28;19915;-61
2022/08/26 05:10:08;;;;;;;;;;;27.90;59.10;;;;;;5110576;28;20135;-61
2022/08/26 05:12:33;;;;;;;;;;;27.90;59.00;;;;;;5094153;28;19926;-61
2022/08/26 05:14:59;;;;;;;;;;;27.90;58.90;;;;;;5097390;28;20373;-61
2022/08/26 05:17:26;;;;;;;;;;;27.90;58.90;;;;;;5074681;28;19920;-61
2022/08/26 05:19:51;;;;;;;;;;;28.00;58.90;;;;;;5074463;28;19912;-61
2022/08/26 05:22:17;;;;;;;;;;;27.90;58.80;;;;;;5085030;28;19912;-61
2022/08/26 05:24:43;;;;;;;;;;;27.90;59.00;;;;;;5073428;28;19908;-61
2022/08/26 05:27:08;;;;;;;;;;;27.90;59.20;;;;;;5082499;28;20375;-61
2022/08/26 05:29:34;;;;;;;;;;;27.80;59.30;;;;;;5065724;28;19920;-61
2022/08/26 05:32:00;;;;;;;;;;;27.80;59.20;;;;;;5071987;28;20266;-60
2022/08/26 05:34:26;;;;;;;;;;;27.80;59.30;;;;;;5089481;28;20021;-61
2022/08/26 05:36:51;;;;;;;;;;;27.90;59.30;;;;;;5091699;28;20382;-61
2022/08/26 05:39:16;;;;;;;;;;;27.90;59.30;;;;;;5087307;28;19916;-61
2022/08/26 05:41:42;;;;;;;;;;;27.80;59.30;;;;;;5073099;28;20676;-61
2022/08/26 05:44:08;;;;;;;;;;;27.80;59.20;;;;;;5070856;28;19916;-61
2022/08/26 05:46:35;;;;;;;;;;;27.70;59.60;;;;;;5072134;28;19920;-61
2022/08/26 05:49:00;;;;;;;;;;;27.70;59.60;;;;;;5075160;28;19980;-61
2022/08/26 05:51:26;;;;;;;;;;;27.70;59.60;;;;;;5093131;28;20360;-61
2022/08/26 05:53:51;;;;;;;;;;;27.70;59.60;;;;;;5092577;28;19915;-61
2022/08/26 05:56:18;;;;;;;;;;;27.80;59.70;;;;;;5052297;28;19923;-61
2022/08/26 05:58:44;;;;;;;;;;;27.80;59.60;;;;;;5091539;28;19923;-61
2022/08/26 06:01:09;;;;;;;;;;;27.80;59.80;;;;;;5089680;28;19916;-61
2022/08/26 06:03:36;;;;;;;;;;;27.80;59.70;;;;;;5085360;28;19931;-61
2022/08/26 06:06:02;;;;;;;;;;;27.80;59.50;;;;;;5074376;28;20007;-63
2022/08/26 06:08:28;;;;;;;;;;;27.90;59.60;;;;;;5072970;28;19908;-62
2022/08/26 06:10:54;;;;;;;;;;;27.90;59.40;;;;;;5089775;28;19923;-61
2022/08/26 06:13:20;;;;;;;;;;;27.90;59.60;;;;;;5088057;28;20010;-61
2022/08/26 06:15:47;;;;;;;;;;;27.90;59.60;;;;;;5092945;28;20042;-62
2022/08/26 06:18:13;;;;;;;;;;;27.90;59.70;;;;;;5111886;28;19915;-61
2022/08/26 06:20:42;;;;;;;;;;;27.90;59.70;;;;;;5112243;28;19994;-60
2022/08/26 06:25:52;;;;;;;;;;;27.90;59.70;;;;;;5089741;28;19955;-61
2022/08/26 06:28:18;;;;;;;;;;;27.80;59.90;;;;;;5094031;28;20362;-62
2022/08/26 06:30:43;;;;;;;;;;;27.90;59.90;;;;;;5092952;28;20286;-61
2022/08/26 06:33:09;;;;;;;;;;;27.90;59.90;;;;;;5112800;28;19908;-61
2022/08/26 06:35:35;;;;;;;;;;;27.90;60.00;;;;;;5111167;28;20256;-61
2022/08/26 06:38:01;;;;;;;;;;;27.90;59.90;;;;;;5109640;28;20286;-61
2022/08/26 06:40:26;;;;;;;;;;;27.90;60.00;;;;;;5089702;28;20124;-61
2022/08/26 06:42:52;;;;;;;;;;;27.90;60.20;;;;;;5109461;28;20010;-61
2022/08/26 06:45:17;;;;;;;;;;;27.80;60.70;;;;;;5106840;28;19912;-61
2022/08/26 06:47:43;;;;;;;;;;;27.80;61.10;;;;;;5111702;28;19912;-61
2022/08/26 06:50:08;;;;;;;;;;;27.80;61.10;;;;;;5111830;28;19941;-62
2022/08/26 06:52:34;;;;;;;;;;;27.80;60.80;;;;;;5112488;28;20424;-62
2022/08/26 06:54:59;;;;;;;;;;;27.80;60.80;;;;;;5091352;28;19915;-62
2022/08/26 06:57:25;;;;;;;;;;;27.80;60.30;;;;;;5107135;28;20375;-62
2022/08/26 06:59:50;;;;;;;;;;;27.90;60.80;;;;;;5110801;28;20368;-60
2022/08/26 07:02:15;;;;;;;;;;;27.90;60.70;;;;;;5093703;28;20294;-61
2022/08/26 07:04:43;;;;;;;;;;;27.90;61.10;;;;;;5108055;28;20348;-60
2022/08/26 07:07:11;;;;;;;;;;;27.80;61.10;;;;;;5110385;28;19926;-61
2022/08/26 07:09:37;;;;;;;;;;;27.70;61.10;;;;;;5092652;28;19947;-62
2022/08/26 07:12:03;;;;;;;;;;;27.70;61.40;;;;;;5111306;28;19950;-61
2022/08/26 07:14:30;;;;;;;;;;;27.60;61.70;;;;;;5111917;28;19920;-62
2022/08/26 07:16:56;;;;;;;;;;;27.60;61.80;;;;;;5110868;28;20255;-61
2022/08/26 07:19:21;;;;;;;;;;;27.60;62.00;;;;;;5107947;28;19927;-61
2022/08/26 07:21:47;;;;;;;;;;;27.60;61.90;;;;;;5111793;28;19907;-61
2022/08/26 07:24:12;;;;;;;;;;;27.70;61.70;;;;;;5110552;28;19957;-61
2022/08/26 07:26:38;;;;;;;;;;;27.80;61.80;;;;;;5109818;28;19937;-62
2022/08/26 07:29:03;;;;;;;;;;;27.80;61.50;;;;;;5091032;28;19912;-61
2022/08/26 07:31:29;;;;;;;;;;;27.80;61.40;;;;;;5110601;28;19923;-61
2022/08/26 07:33:55;;;;;;;;;;;27.80;61.30;;;;;;5073988;28;19915;-60
2022/08/26 07:36:21;;;;;;;;;;;27.90;61.30;;;;;;5111818;28;20099;-62
2022/08/26 07:38:47;;;;;;;;;;;27.90;61.20;;;;;;5108408;28;19915;-62
2022/08/26 07:41:13;;;;;;;;;;;27.80;61.50;;;;;;5110488;28;19993;-61
2022/08/26 07:43:38;;;;;;;;;;;27.90;61.70;;;;;;5110150;28;19934;-61
2022/08/26 07:46:04;;;;;;;;;;;27.90;61.40;;;;;;5106778;28;20364;-63
2022/08/26 07:48:30;;;;;;;;;;;28.00;61.30;;;;;;5111719;28;19911;-62
2022/08/26 07:50:55;;;;;;;;;;;27.90;62.00;;;;;;5103698;28;19965;-59
2022/08/26 07:53:21;;;;;;;;;;;27.90;61.40;;;;;;5107591;28;19923;-61
2022/08/26 07:55:46;;;;;;;;;;;27.80;61.90;;;;;;5106052;28;19912;-62
2022/08/26 07:58:12;;;;;;;;;;;27.80;62.10;;;;;;5090730;28;19988;-61
2022/08/26 08:00:37;;;;;;;;;;;27.80;61.90;;;;;;5111593;28;19915;-61
2022/08/26 08:03:04;;;;;;;;;;;27.90;61.50;;;;;;5107150;28;20007;-62
2022/08/26 08:05:31;;;;;;;;;;;27.90;61.30;;;;;;5109177;28;19923;-62
2022/08/26 08:07:57;;;;;;;;;;;28.00;61.30;;;;;;5108075;28;19915;-60
2022/08/26 08:10:23;;;;;;;;;;;28.00;61.30;;;;;;5110035;28;20006;-60
2022/08/26 08:12:49;;;;;;;;;;;28.00;61.50;;;;;;5109801;28;20459;-61
2022/08/26 08:15:15;;;;;;;;;;;28.00;61.30;;;;;;5090484;28;19931;-61
2022/08/26 08:17:42;;;;;;;;;;;28.10;61.40;;;;;;5105337;28;19915;-61
2022/08/26 08:20:08;;;;;;;;;;;28.10;61.40;;;;;;5090888;28;19971;-62
2022/08/26 08:22:34;;;;;;;;;;;28.10;61.40;;;;;;5100869;28;19966;-62
2022/08/26 08:24:59;;;;;;;;;;;28.10;61.40;;;;;;5102570;28;19965;-61
2022/08/26 08:27:25;;;;;;;;;;;28.00;62.00;;;;;;5104504;28;19912;-61
2022/08/26 08:29:53;;;;;;;;;;;28.10;61.50;;;;;;5091800;28;19927;-61
2022/08/26 08:32:18;;;;;;;;;;;28.10;61.40;;;;;;5112681;28;19957;-61
2022/08/26 08:34:44;;;;;;;;;;;28.10;61.60;;;;;;5106033;28;19916;-61
2022/08/26 08:37:09;;;;;;;;;;;28.10;61.40;;;;;;5107203;28;19918;-62
2022/08/26 08:39:34;;;;;;;;;;;28.10;61.40;;;;;;5105634;28;19923;-60
2022/08/26 08:42:06;;;;;;;;;;;28.10;61.40;;;;;;5110416;28;19915;-62
2022/08/26 08:44:32;;;;;;;;;;;28.20;61.50;;;;;;5111115;28;19957;-62
2022/08/26 08:46:58;;;;;;;;;;;28.20;61.50;;;;;;5090275;28;19920;-62
2022/08/26 08:49:24;;;;;;;;;;;28.20;61.50;;;;;;5089002;28;19916;-61
2022/08/26 08:51:55;;;;;;;;;;;28.20;61.50;;;;;;5091045;28;19912;-62
2022/08/26 08:54:21;;;;;;;;;;;28.20;61.50;;;;;;5088586;28;19919;-61
2022/08/26 08:56:51;;;;;;;;;;;28.10;61.70;;;;;;5111576;28;19918;-62
2022/08/26 08:59:19;;;;;;;;;;;28.10;62.00;;;;;;5088876;28;19923;-63
2022/08/26 09:01:44;;;;;;;;;;;28.10;61.90;;;;;;5089192;28;20109;-61
2022/08/26 09:04:09;;;;;;;;;;;28.10;61.80;;;;;;5108315;28;19933;-61
2022/08/26 09:06:35;;;;;;;;;;;28.10;61.40;;;;;;5105123;28;19916;-62
2022/08/26 09:09:00;;;;;;;;;;;28.10;61.40;;;;;;5104067;28;20002;-63
2022/08/26 09:11:26;;;;;;;;;;;28.10;61.10;;;;;;5085197;28;19915;-62
2022/08/26 09:13:52;;;;;;;;;;;28.20;61.10;;;;;;5107280;28;19927;-61
2022/08/26 09:16:23;;;;;;;;;;;28.30;61.00;;;;;;5086453;28;19965;-61
2022/08/26 09:18:49;;;;;;;;;;;28.30;60.90;;;;;;5107014;28;19912;-60
2022/08/26 09:21:15;;;;;;;;;;;28.30;60.90;;;;;;5104353;28;19931;-61
2022/08/26 09:23:41;;;;;;;;;;;28.40;60.50;;;;;;5097127;28;19926;-62
2022/08/26 09:26:17;;;;;;;;;;;28.40;60.40;;;;;;5089366;28;20378;-63
2022/08/26 09:28:46;;;;;;;;;;;28.50;60.40;;;;;;5104295;28;20508;-63
2022/08/26 09:31:12;;;;;;;;;;;28.50;60.70;;;;;;5100616;28;19955;-61
2022/08/26 09:33:39;;;;;;;;;;;28.50;60.80;;;;;;5105450;28;19963;-63
2022/08/26 09:36:11;;;;;;;;;;;28.40;60.50;;;;;;5093066;28;19912;-61
2022/08/26 09:38:36;;;;;;;;;;;28.50;60.40;;;;;;5103788;28;19912;-62
2022/08/26 09:41:03;;;;;;;;;;;28.50;60.70;;;;;;5100518;28;20412;-62
2022/08/26 09:43:29;;;;;;;;;;;28.50;60.50;;;;;;5089367;28;20287;-61
2022/08/26 09:46:08;;;;;;;;;;;28.50;60.50;;;;;;5087810;28;19916;-62
2022/08/26 09:48:34;;;;;;;;;;;28.50;60.30;;;;;;5104253;28;19980;-63
2022/08/26 09:51:01;;;;;;;;;;;28.60;60.50;;;;;;5090785;28;19968;-62
2022/08/26 09:53:27;;;;;;;;;;;28.60;60.00;;;;;;5087829;28;19998;-61
2022/08/26 09:56:09;;;;;;;;;;;28.70;60.40;;;;;;5092592;28;20391;-62
2022/08/26 09:58:38;;;;;;;;;;;28.70;60.10;;;;;;5101137;28;19919;-62
2022/08/26 10:01:04;;;;;;;;;;;28.70;59.80;;;;;;5084345;28;20503;-63
2022/08/26 10:03:31;;;;;;;;;;;28.70;59.90;;;;;;5086974;28;19923;-63
2022/08/26 10:05:57;;;;;;;;;;;28.70;59.90;;;;;;5087672;28;19916;-64
2022/08/26 10:08:24;;;;;;;;;;;28.70;59.90;;;;;;5106748;27;20417;-62
2022/08/26 10:10:50;;;;;;;;;;;28.80;59.70;;;;;;5083130;28;20026;-63
2022/08/26 10:13:35;;;;;;;;;;;28.70;59.70;;;;;;5089366;28;20052;-62
2022/08/26 10:16:13;;;;;;;;;;;28.80;59.80;;;;;;5083473;28;19927;-60
2022/08/26 10:18:40;;;;;;;;;;;28.70;59.60;;;;;;5107562;28;20424;-62
2022/08/26 10:21:10;;;;;;;;;;;28.70;59.60;;;;;;5091402;28;20289;-62
2022/08/26 10:23:37;;;;;;;;;;;28.70;59.50;;;;;;5100946;28;19965;-63
2022/08/26 10:26:07;;;;;;;;;;;28.80;59.40;;;;;;5087679;28;19922;-62
2022/08/26 10:28:33;;;;;;;;;;;28.70;60.30;;;;;;5103261;28;19919;-62
2022/08/26 10:31:00;;;;;;;;;;;28.70;59.60;;;;;;5106389;28;19920;-62
2022/08/26 10:33:25;;;;;;;;;;;28.70;59.60;;;;;;5080756;28;19919;-62
2022/08/26 10:35:51;;;;;;;;;;;28.70;59.70;;;;;;5090044;28;19960;-61
2022/08/26 10:38:18;;;;;;;;;;;28.70;59.50;;;;;;5083291;28;20006;-62
2022/08/26 10:40:43;;;;;;;;;;;28.70;59.50;;;;;;5108520;28;19925;-62
2022/08/26 10:43:12;;;;;;;;;;;28.70;59.50;;;;;;5102124;28;19919;-62
2022/08/26 10:45:41;;;;;;;;;;;28.80;59.40;;;;;;5107990;28;19911;-62
2022/08/26 10:48:17;;;;;;;;;;;28.80;59.20;;;;;;5080334;28;19912;-62
2022/08/26 10:50:44;;;;;;;;;;;28.80;59.10;;;;;;5084042;28;19924;-62
2022/08/26 10:53:12;;;;;;;;;;;28.70;59.00;;;;;;5099187;28;19916;-62
2022/08/26 10:55:37;;;;;;;;;;;28.70;59.10;;;;;;5095789;28;19916;-62
2022/08/26 10:58:22;;;;;;;;;;;28.70;59.00;;;;;;5108010;28;20352;-63
2022/08/26 11:03:38;;;;;;;;;;;28.60;59.10;;;;;;5089665;28;20044;-63
2022/08/26 11:06:18;;;;;;;;;;;28.70;58.90;;;;;;5086564;28;19927;-62
2022/08/26 11:08:47;;;;;;;;;;;28.60;59.00;;;;;;5098619;28;20264;-62
2022/08/26 11:11:33;;;;;;;;;;;28.60;59.10;;;;;;5105707;28;19916;-61
2022/08/26 11:14:00;;;;;;;;;;;28.60;58.90;;;;;;5084839;28;19920;-61
2022/08/26 11:16:41;;;;;;;;;;;28.60;58.80;;;;;;5088351;28;20334;-62
2022/08/26 11:19:08;;;;;;;;;;;28.70;58.90;;;;;;5085001;28;19938;-60
2022/08/26 11:21:46;;;;;;;;;;;28.70;58.70;;;;;;5071151;28;19918;-62
2022/08/26 11:24:30;;;;;;;;;;;28.70;58.50;;;;;;5058940;28;20433;-61
2022/08/26 11:26:56;;;;;;;;;;;28.70;58.50;;;;;;5088312;28;19916;-60
2022/08/26 11:29:40;;;;;;;;;;;28.70;58.60;;;;;;5082969;28;19916;-60
2022/08/26 11:32:05;;;;;;;;;;;28.70;58.50;;;;;;5088168;28;19927;-61
2022/08/26 11:34:49;;;;;;;;;;;28.70;58.30;;;;;;5072894;28;19912;-61
2022/08/26 11:37:14;;;;;;;;;;;28.80;58.30;;;;;;5075391;28;20402;-61
2022/08/26 11:39:50;;;;;;;;;;;28.90;58.00;;;;;;5067933;28;19916;-61
2022/08/26 11:42:36;;;;;;;;;;;28.90;58.00;;;;;;5084727;28;20015;-61
2022/08/26 11:45:10;;;;;;;;;;;28.90;57.70;;;;;;5071054;28;19912;-60
2022/08/26 11:47:35;;;;;;;;;;;29.00;57.50;;;;;;5065060;28;19920;-61
2022/08/26 11:50:11;;;;;;;;;;;29.00;57.50;;;;;;5088031;28;19927;-61
2022/08/26 11:52:37;;;;;;;;;;;29.00;57.60;;;;;;5070529;28;20000;-61
2022/08/26 11:55:05;;;;;;;;;;;29.00;57.50;;;;;;5075443;28;20007;-63
2022/08/26 11:57:34;;;;;;;;;;;29.10;57.30;;;;;;5087821;28;19912;-63
2022/08/26 12:00:00;;;;;;;;;;;29.10;57.30;;;;;;5067284;28;20011;-63
2022/08/26 12:02:26;;;;;;;;;;;29.10;57.40;;;;;;5062997;28;20018;-62
2022/08/26 12:04:52;;;;;;;;;;;29.10;57.50;;;;;;5085697;28;19919;-62
2022/08/26 12:07:20;;;;;;;;;;;29.10;57.30;;;;;;5076201;28;19908;-62
2022/08/26 12:09:56;;;;;;;;;;;29.10;57.00;;;;;;5070591;28;19963;-62
2022/08/26 12:12:42;;;;;;;;;;;29.10;56.60;;;;;;5073631;28;19916;-62
2022/08/26 12:15:10;;;;;;;;;;;29.10;56.60;;;;;;5073455;28;19932;-63
2022/08/26 12:17:36;;;;;;;;;;;29.10;56.10;;;;;;5086550;28;20026;-61
2022/08/26 12:20:01;;;;;;;;;;;29.20;56.10;;;;;;5064756;28;20006;-63
2022/08/26 12:22:28;;;;;;;;;;;29.20;55.90;;;;;;5071251;28;19916;-63
2022/08/26 12:24:54;;;;;;;;;;;29.20;55.70;;;;;;5074912;28;19920;-62
2022/08/26 12:27:26;;;;;;;;;;;29.10;55.40;;;;;;5070072;28;19924;-61
2022/08/26 12:30:03;;;;;;;;;;;29.20;55.30;;;;;;5087653;28;19923;-62
2022/08/26 12:32:30;;;;;;;;;;;29.20;55.10;;;;;;5068662;28;19916;-63
2022/08/26 12:34:56;;;;;;;;;;;29.20;55.10;;;;;;5061049;28;19962;-62
2022/08/26 12:37:22;;;;;;;;;;;29.20;55.10;;;;;;5073721;28;19951;-62
2022/08/26 12:39:47;;;;;;;;;;;29.20;55.10;;;;;;5082365;28;20326;-61
2022/08/26 12:42:16;;;;;;;;;;;29.20;54.90;;;;;;5088308;28;19909;-65
2022/08/26 12:44:48;;;;;;;;;;;29.20;55.50;;;;;;5092616;28;19912;-62
2022/08/26 12:47:17;;;;;;;;;;;29.30;54.80;;;;;;5065644;28;19920;-63
2022/08/26 12:49:42;;;;;;;;;;;29.30;54.40;;;;;;5078142;28;20391;-62
2022/08/26 12:52:28;;;;;;;;;;;29.40;54.50;;;;;;5077228;28;19912;-62
2022/08/26 12:55:01;;;;;;;;;;;29.40;54.30;;;;;;5089867;28;19908;-62
2022/08/26 12:57:28;;;;;;;;;;;29.40;54.20;;;;;;5071049;28;19927;-62
2022/08/26 13:00:13;;;;;;;;;;;29.40;54.20;;;;;;5079067;28;19912;-62
2022/08/26 13:02:39;;;;;;;;;;;29.50;54.60;;;;;;5058899;28;20130;-62
2022/08/26 13:05:04;;;;;;;;;;;29.40;54.90;;;;;;5073522;28;19920;-62
2022/08/26 13:07:30;;;;;;;;;;;29.40;55.20;;;;;;5067227;28;20050;-62
2022/08/26 13:09:56;;;;;;;;;;;29.40;55.20;;;;;;5087211;28;19924;-63
2022/08/26 13:12:32;;;;;;;;;;;29.40;55.30;;;;;;5070247;28;20506;-62
2022/08/26 13:14:57;;;;;;;;;;;29.30;55.50;;;;;;5091930;28;20319;-62
2022/08/26 13:17:24;;;;;;;;;;;29.30;55.80;;;;;;5092894;28;19912;-62
2022/08/26 13:19:49;;;;;;;;;;;29.30;56.20;;;;;;5092889;28;19908;-62
2022/08/26 13:22:17;;;;;;;;;;;29.30;56.70;;;;;;5076121;28;20368;-62
2022/08/26 13:24:43;;;;;;;;;;;29.30;56.70;;;;;;5088265;28;19916;-63
2022/08/26 13:27:09;;;;;;;;;;;29.20;57.00;;;;;;5074607;28;19915;-61
2022/08/26 13:29:35;;;;;;;;;;;29.20;57.20;;;;;;5079380;28;19924;-62
2022/08/26 13:32:01;;;;;;;;;;;29.10;57.30;;;;;;5090948;28;19969;-62
2022/08/26 13:34:26;;;;;;;;;;;29.10;57.40;;;;;;5090566;28;19912;-62
2022/08/26 13:36:52;;;;;;;;;;;29.20;57.50;;;;;;5093973;28;20345;-62
2022/08/26 13:39:18;;;;;;;;;;;29.10;57.50;;;;;;5084159;28;19908;-62
2022/08/26 13:41:43;;;;;;;;;;;29.10;57.60;;;;;;5078255;28;19994;-62
2022/08/26 13:44:09;;;;;;;;;;;29.10;57.70;;;;;;5083738;28;20424;-62
2022/08/26 13:46:34;;;;;;;;;;;29.10;57.80;;;;;;5080332;28;19920;-62
2022/08/26 13:49:00;;;;;;;;;;;29.20;57.80;;;;;;5086678;28;19924;-62
2022/08/26 13:51:26;;;;;;;;;;;29.10;58.30;;;;;;5091128;28;19971;-62
2022/08/26 13:53:52;;;;;;;;;;;29.10;58.70;;;;;;5079131;28;20413;-62
2022/08/26 13:56:17;;;;;;;;;;;29.00;59.40;;;;;;5087173;28;20027;-62
2022/08/26 13:58:43;;;;;;;;;;;29.10;59.30;;;;;;5086296;28;19908;-62
2022/08/26 14:01:09;;;;;;;;;;;29.20;59.00;;;;;;5089715;28;20550;-62
2022/08/26 14:03:34;;;;;;;;;;;29.20;59.10;;;;;;5089653;28;19919;-62
2022/08/26 14:06:00;;;;;;;;;;;29.20;59.20;;;;;;5092131;28;20056;-62
2022/08/26 14:08:25;;;;;;;;;;;29.20;59.40;;;;;;5086092;28;19912;-62
2022/08/26 14:10:51;;;;;;;;;;;29.10;59.60;;;;;;5080717;28;19912;-62
2022/08/26 14:13:17;;;;;;;;;;;29.10;59.70;;;;;;5088119;28;20338;-63
2022/08/26 14:15:42;;;;;;;;;;;29.10;59.70;;;;;;5060000;28;19924;-61
2022/08/26 14:18:08;;;;;;;;;;;29.10;59.90;;;;;;5083555;28;19912;-62
2022/08/26 14:20:33;;;;;;;;;;;29.10;59.90;;;;;;5058736;28;19919;-62
2022/08/26 14:22:59;;;;;;;;;;;29.10;59.90;;;;;;5091183;28;19912;-62
2022/08/26 14:25:24;;;;;;;;;;;29.10;59.80;;;;;;5091596;28;19927;-62